Time;durP1;ratioP1;P1;durP2;ratioP2;P2;SDS_P1;SDS_P2;PMS_P1;PMS_P2;Temp;Humidity;BMP_temperature;BMP_pressure;BME280_temperature;BME280_humidity;BME280_pressure;Samples;Min_cycle;Max_cycle;Signal;HPM_P1;HPM_P2
2022/01/29 00:01:56;;;;;;;108.93;36.30;;;0.80;99.90;;;;;;4953949;28;20588;-87
2022/01/29 00:04:22;;;;;;;103.68;34.08;;;0.80;99.90;;;;;;4956086;29;20035;-88
2022/01/29 00:06:48;;;;;;;104.10;33.75;;;0.80;99.90;;;;;;4955885;28;20036;-88
2022/01/29 00:09:15;;;;;;;104.80;35.80;;;0.80;99.90;;;;;;4955719;28;20039;-88
2022/01/29 00:11:47;;;;;;;93.97;32.88;;;0.70;99.90;;;;;;4955974;28;20046;-88
2022/01/29 00:14:12;;;;;;;112.95;36.53;;;0.70;99.90;;;;;;4952425;28;20620;-87
2022/01/29 00:16:40;;;;;;;104.07;36.42;;;0.80;99.90;;;;;;4954424;28;20110;-89
2022/01/29 00:19:06;;;;;;;116.38;36.22;;;0.70;99.90;;;;;;4955225;28;20039;-87
2022/01/29 00:21:32;;;;;;;97.72;33.05;;;0.70;99.90;;;;;;4955621;29;20042;-88
2022/01/29 00:23:58;;;;;;;102.18;35.78;;;0.70;99.90;;;;;;4955807;28;20035;-88
2022/01/29 00:26:26;;;;;;;108.85;36.15;;;0.70;99.90;;;;;;4955354;29;20475;-88
2022/01/29 00:28:52;;;;;;;124.60;38.08;;;0.70;99.90;;;;;;4954883;28;20039;-87
2022/01/29 00:31:18;;;;;;;107.78;36.22;;;0.70;99.90;;;;;;4955086;29;20035;-88
2022/01/29 00:33:45;;;;;;;107.45;35.33;;;0.70;99.90;;;;;;4955044;28;20042;-88
2022/01/29 00:36:10;;;;;;;106.15;36.17;;;0.80;99.90;;;;;;4955172;29;20041;-88
2022/01/29 00:38:36;;;;;;;108.85;36.53;;;0.70;99.90;;;;;;4955270;29;20023;-88
2022/01/29 00:41:02;;;;;;;110.45;36.05;;;0.70;99.90;;;;;;4955157;29;20039;-88
2022/01/29 00:43:29;;;;;;;103.18;34.80;;;0.70;99.90;;;;;;4955070;28;20036;-89
2022/01/29 00:45:55;;;;;;;104.72;34.65;;;0.80;99.90;;;;;;4939279;29;20041;-89
2022/01/29 00:48:21;;;;;;;91.97;33.90;;;0.70;99.90;;;;;;4955084;29;20042;-88
2022/01/29 00:50:47;;;;;;;93.72;33.70;;;0.70;99.90;;;;;;4955098;28;20039;-87
2022/01/29 00:53:12;;;;;;;93.72;32.58;;;0.70;99.90;;;;;;4955324;28;20039;-88
2022/01/29 00:55:41;;;;;;;86.20;31.75;;;0.70;99.90;;;;;;4954869;28;20034;-88
2022/01/29 00:58:07;;;;;;;93.20;31.10;;;0.70;99.90;;;;;;4955000;28;20098;-88
2022/01/29 01:00:33;;;;;;;75.80;27.45;;;0.70;99.90;;;;;;4955219;28;20047;-88
2022/01/29 01:03:02;;;;;;;84.43;29.17;;;0.80;99.90;;;;;;4954605;28;20093;-89
2022/01/29 01:05:27;;;;;;;75.47;28.63;;;0.80;99.90;;;;;;4954642;28;20031;-89
2022/01/29 01:07:54;;;;;;;77.20;29.60;;;0.80;99.90;;;;;;4970789;28;20066;-87
2022/01/29 01:10:20;;;;;;;75.20;28.83;;;0.80;99.90;;;;;;4954739;28;20039;-88
2022/01/29 01:12:46;;;;;;;71.38;25.42;;;0.80;99.90;;;;;;4938136;29;20039;-89
2022/01/29 01:15:11;;;;;;;64.22;24.13;;;0.80;99.90;;;;;;4954405;28;20060;-87
2022/01/29 01:17:37;;;;;;;71.47;23.05;;;0.80;99.90;;;;;;4954273;28;20059;-88
2022/01/29 01:20:04;;;;;;;64.72;25.45;;;0.80;99.90;;;;;;4954505;28;20077;-88
2022/01/29 01:22:30;;;;;;;51.45;23.48;;;0.90;99.90;;;;;;4954624;28;20037;-87
2022/01/29 01:24:56;;;;;;;60.10;23.65;;;0.90;99.90;;;;;;4954371;29;20035;-89
2022/01/29 01:27:21;;;;;;;50.78;20.08;;;0.90;99.90;;;;;;4954908;28;20046;-88
2022/01/29 01:29:47;;;;;;;54.03;22.15;;;0.90;99.90;;;;;;4954930;28;20106;-89
2022/01/29 01:32:13;;;;;;;52.63;20.25;;;0.90;99.90;;;;;;4954203;28;20039;-89
2022/01/29 01:34:46;;;;;;;46.92;21.65;;;1.00;99.90;;;;;;4954246;28;20031;-89
2022/01/29 01:37:19;;;;;;;44.17;21.02;;;0.90;99.90;;;;;;4954106;28;20043;-88
2022/01/29 01:39:45;;;;;;;43.05;19.10;;;0.90;99.90;;;;;;4938304;29;20070;-87
2022/01/29 01:42:11;;;;;;;52.80;19.00;;;0.90;99.90;;;;;;4947482;29;20055;-87
2022/01/29 01:44:37;;;;;;;53.03;21.80;;;1.00;99.90;;;;;;4953681;28;20118;-87
2022/01/29 01:47:03;;;;;;;46.03;20.13;;;0.90;99.90;;;;;;4954073;28;20161;-89
2022/01/29 01:49:29;;;;;;;45.53;20.25;;;0.90;99.90;;;;;;4953206;29;20031;-88
2022/01/29 01:52:06;;;;;;;50.58;20.05;;;0.90;99.90;;;;;;4953436;29;20031;-88
2022/01/29 01:54:33;;;;;;;46.63;19.40;;;0.90;99.90;;;;;;4947460;29;20035;-88
2022/01/29 01:57:00;;;;;;;49.92;19.20;;;0.90;99.90;;;;;;4947465;28;20027;-87
2022/01/29 01:59:27;;;;;;;41.17;18.80;;;0.90;99.90;;;;;;4952990;29;20134;-88
2022/01/29 02:01:52;;;;;;;43.83;19.70;;;0.90;99.90;;;;;;4953222;29;20035;-87
2022/01/29 02:04:18;;;;;;;55.90;20.50;;;0.90;99.90;;;;;;4952972;29;20387;-88
2022/01/29 02:06:45;;;;;;;47.55;21.65;;;0.90;99.90;;;;;;4953042;29;20031;-88
2022/01/29 02:09:14;;;;;;;49.00;20.85;;;0.90;99.90;;;;;;4952928;29;20039;-87
2022/01/29 02:11:50;;;;;;;51.50;20.83;;;0.90;99.90;;;;;;4953032;29;20034;-87
2022/01/29 02:14:17;;;;;;;51.38;21.40;;;0.90;99.90;;;;;;4952893;29;20078;-88
2022/01/29 02:16:43;;;;;;;54.17;22.00;;;0.90;99.90;;;;;;4937596;29;20027;-88
2022/01/29 02:19:08;;;;;;;61.92;23.25;;;0.90;99.90;;;;;;4953518;28;20054;-88
2022/01/29 02:21:37;;;;;;;52.45;22.52;;;0.80;99.90;;;;;;4953297;28;20240;-89
2022/01/29 02:24:02;;;;;;;71.65;24.17;;;0.80;99.90;;;;;;4952631;28;20066;-88
2022/01/29 02:26:28;;;;;;;66.45;24.65;;;0.80;99.90;;;;;;4952769;28;20110;-87
2022/01/29 02:28:55;;;;;;;57.65;23.88;;;0.80;99.90;;;;;;4953191;29;20042;-88
2022/01/29 02:31:20;;;;;;;66.00;24.83;;;0.70;99.90;;;;;;4953124;28;20451;-88
2022/01/29 02:33:46;;;;;;;61.33;25.35;;;0.70;99.90;;;;;;4953155;29;20032;-87
2022/01/29 02:36:12;;;;;;;60.17;25.20;;;0.70;99.90;;;;;;4952985;29;20031;-88
2022/01/29 02:38:38;;;;;;;57.50;23.77;;;0.70;99.90;;;;;;4952923;28;20041;-88
2022/01/29 02:41:06;;;;;;;68.68;25.73;;;0.80;99.90;;;;;;4953264;28;20024;-87
2022/01/29 02:43:46;;;;;;;62.00;24.42;;;0.70;99.90;;;;;;4953384;28;20079;-88
2022/01/29 02:48:56;;;;;;;63.47;25.90;;;0.80;99.90;;;;;;4953010;29;20038;-87
2022/01/29 02:51:23;;;;;;;67.97;24.77;;;0.70;99.90;;;;;;4932179;29;20130;-87
2022/01/29 02:53:49;;;;;;;65.70;26.95;;;0.80;99.90;;;;;;4952960;28;20034;-86
2022/01/29 02:56:15;;;;;;;69.13;26.85;;;0.80;99.90;;;;;;4953186;28;20035;-87
2022/01/29 02:58:41;;;;;;;66.85;26.85;;;0.80;99.90;;;;;;4952224;29;20041;-87
2022/01/29 03:01:08;;;;;;;67.47;25.75;;;0.80;99.90;;;;;;4953145;28;20038;-88
2022/01/29 03:03:33;;;;;;;65.53;26.85;;;0.80;99.90;;;;;;4936186;29;20035;-88
2022/01/29 03:06:09;;;;;;;60.30;26.00;;;0.70;99.90;;;;;;4952848;28;20027;-88
2022/01/29 03:08:36;;;;;;;74.40;27.52;;;0.70;99.90;;;;;;4931462;29;20122;-88
2022/01/29 03:11:01;;;;;;;67.45;27.13;;;0.80;99.90;;;;;;4952807;29;20035;-88
2022/01/29 03:13:27;;;;;;;68.03;26.83;;;0.80;99.90;;;;;;4952534;29;20126;-88
2022/01/29 03:15:53;;;;;;;70.82;27.83;;;0.80;99.90;;;;;;4936499;29;20043;-88
2022/01/29 03:18:18;;;;;;;73.72;28.92;;;0.70;99.90;;;;;;4952881;29;20066;-88
2022/01/29 03:20:44;;;;;;;75.97;28.05;;;0.70;99.90;;;;;;4952791;29;20425;-89
2022/01/29 03:23:09;;;;;;;66.72;27.70;;;0.70;99.90;;;;;;4952782;29;20058;-87
2022/01/29 03:25:35;;;;;;;74.97;30.75;;;0.70;99.90;;;;;;4952331;28;20078;-88
2022/01/29 03:28:01;;;;;;;74.85;29.35;;;0.70;99.90;;;;;;4952876;29;20031;-87
2022/01/29 03:30:27;;;;;;;75.80;27.63;;;0.70;99.90;;;;;;4952502;28;20042;-88
2022/01/29 03:32:52;;;;;;;71.78;29.58;;;0.70;99.90;;;;;;4952342;28;20043;-87
2022/01/29 03:35:19;;;;;;;73.20;27.55;;;0.70;99.90;;;;;;4952460;28;20139;-88
2022/01/29 03:37:44;;;;;;;71.22;28.10;;;0.70;99.90;;;;;;4939771;29;20031;-86
2022/01/29 03:40:10;;;;;;;67.78;26.77;;;0.70;99.90;;;;;;4956199;28;20038;-88
2022/01/29 03:42:43;;;;;;;75.72;27.15;;;0.70;99.90;;;;;;4955479;28;20428;-87
2022/01/29 03:45:10;;;;;;;76.90;28.00;;;0.70;99.90;;;;;;4955964;28;20511;-88
2022/01/29 03:47:36;;;;;;;72.88;28.92;;;0.70;99.90;;;;;;4940173;29;20045;-88
2022/01/29 03:50:03;;;;;;;75.50;29.60;;;0.70;99.90;;;;;;4956266;28;20511;-89
2022/01/29 03:52:30;;;;;;;79.32;31.13;;;0.70;99.90;;;;;;4955780;28;20042;-88
2022/01/29 03:54:56;;;;;;;78.72;29.02;;;0.70;99.90;;;;;;4955720;28;20058;-88
2022/01/29 03:57:21;;;;;;;82.53;29.38;;;0.70;99.90;;;;;;4955946;28;20086;-87
2022/01/29 03:59:47;;;;;;;80.18;30.05;;;0.70;99.90;;;;;;4955653;29;20039;-87
2022/01/29 04:02:13;;;;;;;81.63;29.85;;;0.60;99.90;;;;;;4955740;28;20066;-87
2022/01/29 04:04:38;;;;;;;84.82;30.25;;;0.60;99.90;;;;;;4956187;28;20067;-89
2022/01/29 04:07:10;;;;;;;86.68;31.92;;;0.60;99.90;;;;;;4956043;28;20134;-88
2022/01/29 04:09:36;;;;;;;86.90;30.23;;;0.60;99.90;;;;;;4955702;28;20039;-86
2022/01/29 04:12:02;;;;;;;87.60;29.40;;;0.60;99.90;;;;;;4955477;28;20042;-87
2022/01/29 04:14:36;;;;;;;102.47;33.83;;;0.60;99.90;;;;;;4955583;29;20035;-87
2022/01/29 04:17:02;;;;;;;96.47;31.13;;;0.60;99.90;;;;;;4955720;29;20090;-87
2022/01/29 04:19:28;;;;;;;91.03;31.92;;;0.60;99.90;;;;;;4955152;28;20027;-88
2022/01/29 04:21:53;;;;;;;90.28;30.25;;;0.60;99.90;;;;;;4955588;28;20530;-88
2022/01/29 04:24:19;;;;;;;91.85;30.65;;;0.60;99.90;;;;;;4939903;29;20034;-87
2022/01/29 04:26:45;;;;;;;98.03;32.50;;;0.50;99.90;;;;;;4939420;29;20130;-88
2022/01/29 04:29:11;;;;;;;105.57;30.92;;;0.50;99.90;;;;;;4955600;28;20031;-88
2022/01/29 04:32:06;;;;;;;105.25;32.67;;;0.50;99.90;;;;;;4939398;29;20024;-88
2022/01/29 04:34:31;;;;;;;94.53;30.88;;;0.50;99.90;;;;;;4955678;28;20070;-88
2022/01/29 04:36:57;;;;;;;116.95;32.65;;;0.50;99.90;;;;;;4955119;28;20183;-88
2022/01/29 04:39:24;;;;;;;94.13;32.33;;;0.50;99.90;;;;;;4955428;28;20031;-88
2022/01/29 04:41:49;;;;;;;102.80;32.72;;;0.50;99.90;;;;;;4955712;29;20126;-87
2022/01/29 04:44:17;;;;;;;108.65;32.97;;;0.50;99.90;;;;;;4955235;28;20122;-88
2022/01/29 04:46:43;;;;;;;114.07;34.25;;;0.50;99.90;;;;;;4955058;29;20031;-87
2022/01/29 04:49:09;;;;;;;127.57;37.13;;;0.50;99.90;;;;;;4954370;28;20046;-88
2022/01/29 04:51:36;;;;;;;133.93;42.03;;;0.50;99.90;;;;;;4939435;28;20046;-88
2022/01/29 04:54:02;;;;;;;138.38;38.95;;;0.50;99.90;;;;;;4939784;29;20039;-88
2022/01/29 04:56:28;;;;;;;138.32;35.67;;;0.50;99.90;;;;;;4955419;28;20464;-88
2022/01/29 04:58:54;;;;;;;163.88;35.33;;;0.50;99.90;;;;;;4954863;28;20122;-87
2022/01/29 05:01:20;;;;;;;133.15;34.88;;;0.50;99.90;;;;;;4955800;28;20027;-88
2022/01/29 05:03:45;;;;;;;181.70;37.10;;;0.50;99.90;;;;;;4954720;28;20074;-88
2022/01/29 05:06:12;;;;;;;116.55;35.17;;;0.40;99.90;;;;;;4954827;28;20122;-87
2022/01/29 05:08:38;;;;;;;148.45;36.22;;;0.40;99.90;;;;;;4955134;28;20075;-88
2022/01/29 05:11:04;;;;;;;387.23;51.17;;;0.40;99.90;;;;;;4954880;28;20495;-88
2022/01/29 05:13:31;;;;;;;411.23;48.30;;;0.40;99.90;;;;;;4954629;28;20042;-88
2022/01/29 05:26:58;;;;;;;534.65;55.90;;;0.30;99.90;;;;;;4949966;29;20039;-88
2022/01/29 05:29:28;;;;;;;294.05;43.63;;;0.20;99.90;;;;;;4954535;28;20027;-88
2022/01/29 05:31:55;;;;;;;663.40;60.42;;;0.30;99.90;;;;;;4954278;28;20640;-88
2022/01/29 05:34:21;;;;;;;640.55;61.53;;;0.20;99.90;;;;;;4954557;28;20176;-88
2022/01/29 05:36:49;;;;;;;908.50;77.18;;;0.30;99.90;;;;;;4954641;28;20373;-89
2022/01/29 05:39:15;;;;;;;882.25;81.00;;;0.20;99.90;;;;;;4954364;29;20060;-88
2022/01/29 05:41:41;;;;;;;707.13;66.60;;;0.20;99.90;;;;;;4954383;28;20480;-88
2022/01/29 05:44:07;;;;;;;523.95;53.05;;;0.20;99.90;;;;;;4954018;28;20023;-88
2022/01/29 05:46:33;;;;;;;807.80;76.95;;;0.20;99.90;;;;;;4954588;28;20372;-88
2022/01/29 05:48:59;;;;;;;899.25;83.53;;;0.20;99.90;;;;;;4954660;28;20031;-88
2022/01/29 05:51:29;;;;;;;1057.53;93.47;;;0.20;99.90;;;;;;4954026;28;20034;-89
2022/01/29 05:53:57;;;;;;;452.17;51.67;;;0.20;99.90;;;;;;4953952;29;20399;-88
2022/01/29 05:56:23;;;;;;;631.17;58.92;;;0.20;99.90;;;;;;4954265;28;20487;-88
2022/01/29 05:58:49;;;;;;;783.05;74.85;;;0.20;99.90;;;;;;4953369;28;20090;-88
2022/01/29 06:01:16;;;;;;;623.47;55.30;;;0.20;99.90;;;;;;4954321;29;20063;-88
2022/01/29 06:03:41;;;;;;;592.55;55.67;;;0.20;99.90;;;;;;4954469;28;20059;-88
2022/01/29 06:06:07;;;;;;;984.08;93.47;;;0.20;99.90;;;;;;4954249;28;20129;-87
2022/01/29 06:08:33;;;;;;;628.80;61.67;;;0.20;99.90;;;;;;4954119;28;20043;-88
2022/01/29 06:11:21;;;;;;;580.58;62.83;;;0.20;99.90;;;;;;4954566;29;20035;-87
2022/01/29 06:13:47;;;;;;;617.08;63.72;;;0.20;99.90;;;;;;4954456;28;20039;-88
2022/01/29 06:16:12;;;;;;;478.65;59.60;;;0.20;99.90;;;;;;4953962;28;20038;-88
2022/01/29 06:18:38;;;;;;;438.10;50.95;;;0.20;99.90;;;;;;4954269;28;20043;-89
2022/01/29 06:21:07;;;;;;;629.90;61.53;;;0.20;99.90;;;;;;4954237;28;20186;-88
2022/01/29 06:23:36;;;;;;;598.88;57.78;;;0.20;99.90;;;;;;4954515;29;20045;-88
2022/01/29 06:26:04;;;;;;;358.75;40.47;;;0.10;99.90;;;;;;4949834;28;20074;-88
2022/01/29 06:28:30;;;;;;;536.13;55.88;;;0.20;99.90;;;;;;4944075;28;20030;-88
2022/01/29 06:30:57;;;;;;;710.55;67.32;;;0.10;99.90;;;;;;4943915;29;20059;-88
2022/01/29 06:33:23;;;;;;;505.65;50.97;;;0.10;99.90;;;;;;4925864;29;20111;-87
2022/01/29 06:35:48;;;;;;;508.67;52.53;;;0.10;99.90;;;;;;4935229;29;20039;-88
2022/01/29 06:38:15;;;;;;;544.85;53.15;;;0.10;99.90;;;;;;4951417;29;20477;-88
2022/01/29 06:40:43;;;;;;;530.00;57.75;;;0.10;99.90;;;;;;4935571;29;20031;-88
2022/01/29 06:43:09;;;;;;;591.97;50.78;;;0.10;99.90;;;;;;4935506;29;20492;-88
2022/01/29 06:45:37;;;;;;;463.33;45.15;;;0.10;99.90;;;;;;4935605;29;20051;-87
2022/01/29 06:48:04;;;;;;;644.60;61.90;;;0.10;99.90;;;;;;4935544;29;20074;-87
2022/01/29 06:50:30;;;;;;;570.80;57.45;;;0.10;99.90;;;;;;4935278;29;20039;-88
2022/01/29 06:52:56;;;;;;;579.88;55.13;;;0.10;99.90;;;;;;4935339;29;20123;-87
2022/01/29 06:55:22;;;;;;;266.35;34.75;;;0.10;99.90;;;;;;4934994;29;20477;-88
2022/01/29 06:57:48;;;;;;;495.08;48.20;;;0.10;99.90;;;;;;4934958;29;20808;-88
2022/01/29 07:00:14;;;;;;;264.38;33.53;;;0.10;99.90;;;;;;4934751;29;20035;-88
2022/01/29 07:02:40;;;;;;;654.20;64.55;;;0.00;99.90;;;;;;4938974;29;20054;-88
2022/01/29 07:05:08;;;;;;;474.48;48.50;;;0.00;99.90;;;;;;4969595;28;20480;-88
2022/01/29 07:07:34;;;;;;;357.42;40.33;;;0.00;99.90;;;;;;4938843;29;20043;-89
2022/01/29 07:10:00;;;;;;;396.60;44.00;;;0.00;99.90;;;;;;4938605;28;20043;-87
2022/01/29 07:12:26;;;;;;;562.70;57.70;;;0.00;99.90;;;;;;4941648;29;20185;-88
2022/01/29 07:14:53;;;;;;;469.77;44.92;;;0.00;99.90;;;;;;4938948;29;20090;-88
2022/01/29 07:17:22;;;;;;;599.92;59.08;;;0.00;99.90;;;;;;4956460;28;20481;-88
2022/01/29 07:19:52;;;;;;;549.45;52.22;;;-0.10;99.90;;;;;;4956875;29;20031;-89
2022/01/29 07:22:18;;;;;;;530.58;55.45;;;0.00;99.90;;;;;;4940947;29;20035;-86
2022/01/29 07:24:44;;;;;;;372.00;40.75;;;0.00;99.90;;;;;;4941270;29;20042;-86
2022/01/29 07:27:10;;;;;;;646.30;64.30;;;0.00;99.90;;;;;;4956811;29;20034;-88
2022/01/29 07:29:36;;;;;;;592.92;53.83;;;-0.10;99.90;;;;;;4955892;28;20035;-88
2022/01/29 07:32:04;;;;;;;450.05;44.88;;;-0.10;99.90;;;;;;4955670;28;20058;-87
2022/01/29 07:34:29;;;;;;;894.35;77.85;;;0.00;99.90;;;;;;4954276;29;20055;-88
2022/01/29 07:36:57;;;;;;;747.53;67.15;;;0.00;99.90;;;;;;4955952;29;20071;-88
2022/01/29 07:39:30;;;;;;;967.85;81.30;;;0.00;99.90;;;;;;4934210;28;20039;-89
2022/01/29 07:41:57;;;;;;;453.15;46.22;;;0.00;99.90;;;;;;4956101;28;20114;-89
2022/01/29 07:44:23;;;;;;;730.38;61.85;;;0.00;99.90;;;;;;4956251;28;20031;-87
2022/01/29 07:46:50;;;;;;;969.17;81.20;;;0.00;99.90;;;;;;4949227;28;20468;-88
2022/01/29 07:49:16;;;;;;;705.92;59.75;;;0.00;99.90;;;;;;4955822;28;20031;-88
2022/01/29 07:51:42;;;;;;;504.75;44.58;;;0.00;99.90;;;;;;4951308;28;20024;-89
2022/01/29 07:54:08;;;;;;;781.55;64.60;;;0.00;99.90;;;;;;4955633;28;20039;-89
2022/01/29 07:56:34;;;;;;;703.05;62.50;;;0.00;99.90;;;;;;4955962;28;20027;-88
2022/01/29 07:59:00;;;;;;;584.80;57.35;;;0.00;99.90;;;;;;4946156;28;20028;-89
2022/01/29 08:01:27;;;;;;;299.98;35.28;;;0.10;99.90;;;;;;4956203;28;20039;-89
2022/01/29 08:03:53;;;;;;;264.85;32.30;;;0.10;99.90;;;;;;4956138;29;20345;-89
2022/01/29 08:06:26;;;;;;;526.08;54.72;;;0.10;99.90;;;;;;4949761;29;20035;-88
2022/01/29 08:08:53;;;;;;;354.92;38.58;;;0.20;99.90;;;;;;4971023;28;20035;-88
2022/01/29 08:11:19;;;;;;;187.73;28.00;;;0.20;99.90;;;;;;4956491;28;20027;-90
2022/01/29 08:13:48;;;;;;;817.65;79.45;;;0.20;99.90;;;;;;4956499;28;20031;-90
2022/01/29 08:16:15;;;;;;;706.78;57.45;;;0.10;99.90;;;;;;4956495;28;20035;-91
2022/01/29 08:18:45;;;;;;;872.92;74.90;;;0.10;99.90;;;;;;4968506;28;20030;-91
2022/01/29 08:21:15;;;;;;;670.40;68.13;;;0.10;99.90;;;;;;4965909;28;20143;-90
2022/01/29 08:23:43;;;;;;;621.83;72.32;;;0.10;99.90;;;;;;4975786;28;20039;-89
2022/01/29 08:26:10;;;;;;;628.85;61.50;;;0.10;99.90;;;;;;4961940;28;20067;-89
2022/01/29 08:28:36;;;;;;;750.75;71.75;;;0.10;99.90;;;;;;4956591;28;20035;-91
2022/01/29 08:31:02;;;;;;;989.85;89.85;;;0.20;99.90;;;;;;4972335;28;20031;-91
2022/01/29 08:33:28;;;;;;;1062.32;99.63;;;0.20;99.90;;;;;;4956333;28;20039;-90
2022/01/29 08:35:53;;;;;;;872.67;89.53;;;0.20;99.90;;;;;;4958509;28;20472;-90
2022/01/29 08:38:20;;;;;;;427.27;53.35;;;0.20;99.90;;;;;;4955945;29;20604;-90
2022/01/29 08:40:46;;;;;;;791.08;84.60;;;0.20;99.90;;;;;;4955795;28;20023;-90
2022/01/29 08:43:15;;;;;;;299.83;44.72;;;0.20;99.90;;;;;;4956062;28;20779;-90
2022/01/29 08:45:41;;;;;;;621.58;71.75;;;0.20;99.90;;;;;;4955360;28;20066;-91
2022/01/29 08:48:07;;;;;;;967.45;91.55;;;0.20;99.90;;;;;;4955484;28;20039;-91
2022/01/29 08:50:33;;;;;;;876.67;86.30;;;0.20;99.90;;;;;;4959955;28;20070;-89
2022/01/29 08:52:59;;;;;;;526.10;64.93;;;0.30;99.90;;;;;;4974177;28;20373;-90
2022/01/29 08:55:25;;;;;;;713.00;76.45;;;0.20;99.90;;;;;;4975154;28;20065;-90
2022/01/29 08:57:50;;;;;;;876.28;93.18;;;0.30;99.90;;;;;;4975194;28;20035;-88
2022/01/29 09:00:17;;;;;;;888.22;95.57;;;0.30;99.90;;;;;;4975057;28;20073;-90
2022/01/29 09:02:42;;;;;;;956.10;95.63;;;0.20;99.90;;;;;;4975030;28;20038;-90
2022/01/29 09:05:10;;;;;;;657.35;74.43;;;0.20;99.90;;;;;;4975177;28;20769;-89
2022/01/29 09:07:36;;;;;;;1025.07;104.25;;;0.20;99.90;;;;;;4974928;28;20129;-91
2022/01/29 09:10:02;;;;;;;667.70;68.80;;;0.20;99.90;;;;;;4975067;28;20070;-90
2022/01/29 09:12:29;;;;;;;719.80;74.78;;;0.20;99.90;;;;;;4974732;28;20026;-90
2022/01/29 09:14:55;;;;;;;665.15;67.40;;;0.20;99.90;;;;;;4974603;28;20019;-92
2022/01/29 09:17:24;;;;;;;763.65;81.03;;;0.30;99.90;;;;;;4975037;28;20027;-91
2022/01/29 09:19:50;;;;;;;369.15;44.22;;;0.30;99.90;;;;;;4974883;28;20152;-90
2022/01/29 09:22:18;;;;;;;486.48;58.80;;;0.20;99.90;;;;;;4991429;28;20042;-90
2022/01/29 09:24:44;;;;;;;723.72;72.10;;;0.20;99.90;;;;;;4969951;28;20035;-90
2022/01/29 09:27:12;;;;;;;389.13;51.08;;;0.20;99.90;;;;;;4955405;28;20035;-91
2022/01/29 09:29:38;;;;;;;301.65;45.85;;;0.30;99.90;;;;;;4955781;28;20049;-92
2022/01/29 09:32:04;;;;;;;613.80;65.38;;;0.30;99.90;;;;;;4955150;28;20039;-90
2022/01/29 09:34:33;;;;;;;780.15;80.35;;;0.30;99.90;;;;;;4971137;28;20074;-90
2022/01/29 09:36:58;;;;;;;695.83;70.03;;;0.30;99.90;;;;;;4971235;28;20039;-91
2022/01/29 09:39:24;;;;;;;624.85;66.93;;;0.20;99.90;;;;;;4955336;28;20031;-91
2022/01/29 09:41:50;;;;;;;851.88;88.20;;;0.30;99.90;;;;;;4955370;28;20042;-88
2022/01/29 09:44:17;;;;;;;578.28;61.38;;;0.30;99.90;;;;;;4952307;28;20027;-91
2022/01/29 09:46:47;;;;;;;892.72;94.22;;;0.40;99.90;;;;;;4969985;28;20420;-92
2022/01/29 09:49:13;;;;;;;552.88;64.65;;;0.40;99.90;;;;;;4971291;28;20495;-90
2022/01/29 09:51:40;;;;;;;581.40;66.50;;;0.40;99.90;;;;;;4955320;29;20059;-91
2022/01/29 09:54:05;;;;;;;396.67;51.78;;;0.40;99.90;;;;;;4955070;29;20030;-91
2022/01/29 09:56:33;;;;;;;462.13;57.65;;;0.50;99.90;;;;;;4938750;29;20031;-91
2022/01/29 09:58:58;;;;;;;254.07;42.80;;;0.50;99.90;;;;;;4954583;29;20047;-89
2022/01/29 10:01:27;;;;;;;424.67;51.38;;;0.50;99.90;;;;;;4956434;28;20027;-88
2022/01/29 10:04:07;;;;;;;493.05;60.78;;;0.50;99.90;;;;;;4970825;28;20023;-88
2022/01/29 10:06:35;;;;;;;259.15;46.28;;;0.50;99.90;;;;;;4955058;29;20122;-89
2022/01/29 10:09:06;;;;;;;712.42;77.88;;;0.50;99.90;;;;;;4970829;28;20023;-88
2022/01/29 10:11:32;;;;;;;690.03;70.57;;;0.50;99.90;;;;;;4954983;29;20034;-88
2022/01/29 10:14:01;;;;;;;650.47;72.80;;;0.60;99.90;;;;;;4954879;28;20031;-90
2022/01/29 10:16:28;;;;;;;658.97;74.95;;;0.60;99.90;;;;;;4951211;29;20027;-88
2022/01/29 10:19:03;;;;;;;690.38;72.45;;;0.60;99.90;;;;;;4958282;28;20043;-87
2022/01/29 10:21:33;;;;;;;246.25;43.67;;;0.60;99.90;;;;;;4951715;28;20096;-88
2022/01/29 10:24:05;;;;;;;530.03;64.85;;;0.60;99.90;;;;;;4954100;29;20518;-88
2022/01/29 10:26:33;;;;;;;553.15;67.63;;;0.60;99.90;;;;;;4954860;28;20519;-86
2022/01/29 10:29:49;;;;;;;551.38;77.88;;;0.60;99.90;;;;;;4954571;28;20062;-88
2022/01/29 10:32:41;;;;;;;473.80;61.75;;;0.70;99.90;;;;;;4954199;28;20035;-89
2022/01/29 10:35:07;;;;;;;398.65;57.58;;;0.70;99.90;;;;;;4945655;28;20031;-88
2022/01/29 10:37:33;;;;;;;493.83;61.78;;;0.60;99.90;;;;;;4952157;28;20098;-88
2022/01/29 10:40:13;;;;;;;533.65;62.85;;;0.60;99.90;;;;;;4939426;28;20043;-89
2022/01/29 10:42:40;;;;;;;679.92;80.05;;;0.60;99.90;;;;;;4954731;28;20392;-88
2022/01/29 10:48:44;;;;;;;509.38;60.15;;;0.60;99.90;;;;;;4956091;29;20050;-89
2022/01/29 10:51:11;;;;;;;992.45;96.72;;;0.60;99.90;;;;;;4946040;28;20066;-87
2022/01/29 10:53:37;;;;;;;882.47;97.18;;;0.60;99.90;;;;;;4939035;28;20032;-89
2022/01/29 10:56:04;;;;;;;1263.78;130.15;;;0.70;99.90;;;;;;4940683;28;20030;-89
2022/01/29 10:58:38;;;;;;;711.08;73.65;;;0.60;99.90;;;;;;4937782;29;20047;-89
2022/01/29 11:01:18;;;;;;;695.92;76.20;;;0.60;99.90;;;;;;4969163;28;20031;-89
2022/01/29 11:03:46;;;;;;;611.05;63.90;;;0.70;99.90;;;;;;4949000;28;20030;-89
2022/01/29 11:06:16;;;;;;;679.83;66.40;;;0.70;99.90;;;;;;4954098;28;20465;-89
2022/01/29 11:08:43;;;;;;;975.50;97.60;;;0.70;99.90;;;;;;4954645;28;20528;-89
2022/01/29 11:11:18;;;;;;;991.35;96.90;;;0.70;99.90;;;;;;4954023;28;20062;-90
2022/01/29 11:13:46;;;;;;;944.70;101.15;;;0.70;99.90;;;;;;4954443;28;20074;-89
2022/01/29 11:16:15;;;;;;;1421.50;130.57;;;0.60;99.90;;;;;;4954814;28;20420;-88
2022/01/29 11:18:41;;;;;;;936.75;100.35;;;0.60;99.90;;;;;;4954100;28;20034;-89
2022/01/29 11:21:07;;;;;;;1640.43;147.88;;;0.70;99.90;;;;;;4954849;28;20034;-89
2022/01/29 11:23:33;;;;;;;1159.97;111.18;;;0.70;99.90;;;;;;4954192;28;20050;-89
2022/01/29 11:26:00;;;;;;;821.33;86.38;;;0.70;99.90;;;;;;4954882;28;20527;-89
2022/01/29 11:28:28;;;;;;;596.38;67.95;;;0.70;99.90;;;;;;4959881;28;20035;-88
2022/01/29 11:31:15;;;;;;;1003.15;101.50;;;0.70;99.90;;;;;;4956173;28;20045;-89
2022/01/29 11:34:00;;;;;;;942.10;92.28;;;0.80;99.90;;;;;;4986767;28;20089;-90
2022/01/29 11:36:47;;;;;;;1089.18;110.25;;;0.70;99.90;;;;;;4986960;28;20070;-89
2022/01/29 11:39:25;;;;;;;1212.55;114.35;;;0.70;99.90;;;;;;4986121;28;20551;-88
2022/01/29 11:42:26;;;;;;;1229.40;105.43;;;0.70;99.90;;;;;;4955767;28;20042;-88
2022/01/29 11:44:52;;;;;;;1318.17;108.23;;;0.70;99.90;;;;;;4917714;29;20126;-89
2022/01/29 11:47:25;;;;;;;1117.82;96.07;;;0.70;99.90;;;;;;4954267;29;20035;-90
2022/01/29 11:49:52;;;;;;;865.20;78.22;;;0.80;99.90;;;;;;4985827;28;20031;-89
2022/01/29 11:52:23;;;;;;;872.70;85.20;;;0.80;99.90;;;;;;4953394;28;20039;-89
2022/01/29 11:55:04;;;;;;;894.13;79.60;;;0.80;99.90;;;;;;4951491;29;20031;-89
2022/01/29 11:57:30;;;;;;;1028.20;93.57;;;0.80;99.90;;;;;;4940542;28;20097;-91
2022/01/29 12:00:16;;;;;;;617.33;63.15;;;0.80;99.90;;;;;;4958763;28;20043;-90
2022/01/29 12:02:44;;;;;;;875.90;79.70;;;0.80;99.90;;;;;;4956294;28;20055;-89
2022/01/29 12:05:11;;;;;;;1051.90;100.20;;;0.70;99.90;;;;;;4937617;28;20039;-90
2022/01/29 12:08:24;;;;;;;366.75;49.17;;;0.70;99.90;;;;;;4970904;28;20062;-91
2022/01/29 12:10:56;;;;;;;624.22;63.97;;;0.70;99.90;;;;;;4954851;29;20031;-89
2022/01/29 12:13:22;;;;;;;;;;;0.80;99.90;;;;;;4971610;28;20376;-90
2022/01/29 12:15:48;;;;;;;702.65;67.38;;;0.70;99.90;;;;;;4956929;28;19911;-90
2022/01/29 12:18:29;;;;;;;930.35;84.30;;;0.80;99.90;;;;;;4972238;28;20035;-89
2022/01/29 12:20:54;;;;;;;963.55;89.35;;;0.80;99.90;;;;;;4965420;28;20028;-89
2022/01/29 12:23:20;;;;;;;909.78;84.43;;;0.80;99.90;;;;;;4969478;28;20035;-89
2022/01/29 12:25:58;;;;;;;1115.65;97.68;;;0.90;99.90;;;;;;4940274;28;20097;-90
2022/01/29 12:28:25;;;;;;;476.95;49.80;;;0.90;99.90;;;;;;4954567;28;20118;-89
2022/01/29 12:30:52;;;;;;;966.05;83.82;;;0.90;99.90;;;;;;4937895;28;20037;-89
2022/01/29 12:33:24;;;;;;;956.55;94.72;;;0.80;99.90;;;;;;4968425;28;20031;-90
2022/01/29 12:35:58;;;;;;;1219.00;105.43;;;0.80;99.90;;;;;;4941669;28;20074;-89
2022/01/29 12:38:30;;;;;;;1438.07;125.05;;;0.80;99.90;;;;;;4956189;28;20047;-88
2022/01/29 12:41:05;;;;;;;1087.68;102.22;;;0.80;99.90;;;;;;4970334;28;20384;-89
2022/01/29 12:43:53;;;;;;;1146.95;105.45;;;0.90;99.90;;;;;;4948065;28;20488;-89
2022/01/29 12:46:23;;;;;;;1022.47;91.03;;;0.90;99.90;;;;;;4962598;28;20050;-88
2022/01/29 12:49:06;;;;;;;980.80;87.10;;;0.90;99.90;;;;;;4953752;28;20091;-89
2022/01/29 12:51:35;;;;;;;1287.32;108.82;;;0.90;99.90;;;;;;4953742;29;20043;-88